Time;durP1;ratioP1;P1;durP2;ratioP2;P2;SDS_P1;SDS_P2;PMS_P1;PMS_P2;Temp;Humidity;BMP_temperature;BMP_pressure;BME280_temperature;BME280_humidity;BME280_pressure;Samples;Min_cycle;Max_cycle;Signal;HPM_P1;HPM_P2
2022/07/11 00:00:30;;;;;;;1.50;1.00;;;;;;;16.93;43.12;100013.84;7765893;32;39019;-82
2022/07/11 00:04:46;;;;;;;4.78;0.88;;;;;;;16.83;43.19;100015.69;7765744;32;39601;-80
2022/07/11 00:09:03;;;;;;;2.75;1.00;;;;;;;16.92;43.17;100009.44;7765710;32;37965;-80
2022/07/11 00:13:19;;;;;;;2.78;0.95;;;;;;;16.64;43.83;100023.22;7765710;32;38088;-81
2022/07/11 00:17:35;;;;;;;4.15;1.20;;;;;;;16.83;43.34;100023.09;7765590;32;40097;-81
2022/07/11 00:21:52;;;;;;;1.67;1.12;;;;;;;16.51;44.33;100027.63;7765120;32;40580;-80
2022/07/11 00:26:08;;;;;;;1.73;0.93;;;;;;;16.52;44.11;100020.97;7765579;32;38683;-80
2022/07/11 00:30:24;;;;;;;3.22;1.00;;;;;;;16.42;44.31;100037.69;7775370;32;37700;-70
2022/07/11 00:34:40;;;;;;;2.92;1.12;;;;;;;16.19;44.61;100028.50;7771032;32;39692;-78
2022/07/11 00:38:57;;;;;;;1.52;1.05;;;;;;;16.44;43.84;100030.78;7765761;32;40751;-79
2022/07/11 00:43:19;;;;;;;2.37;1.10;;;;;;;16.13;44.79;100036.03;7765172;32;38755;-80
2022/07/11 00:47:35;;;;;;;2.85;1.10;;;;;;;16.41;44.04;100034.13;7765330;32;37829;-80
2022/07/11 00:51:51;;;;;;;2.05;1.05;;;;;;;16.47;43.95;100038.44;7743209;32;39460;-79
2022/07/11 00:56:08;;;;;;;2.28;1.10;;;;;;;16.38;44.92;100025.66;7738143;32;40725;-80
2022/07/11 01:00:24;;;;;;;3.50;1.35;;;;;;;16.27;45.09;100031.38;7738204;32;38004;-81
2022/07/11 01:04:40;;;;;;;1.37;1.10;;;;;;;16.47;45.65;100035.66;7736904;32;36991;-78
2022/07/11 01:08:57;;;;;;;1.08;1.08;;;;;;;16.36;45.28;100033.41;7738160;32;39370;-79
2022/07/11 01:13:13;;;;;;;1.00;0.90;;;;;;;16.20;46.03;100028.19;7737898;32;39937;-79
2022/07/11 01:17:29;;;;;;;2.53;1.37;;;;;;;16.40;45.48;100028.94;7737219;32;38808;-79
2022/07/11 01:21:49;;;;;;;2.12;1.23;;;;;;;16.06;45.77;100025.44;7756606;32;36773;-80
2022/07/11 01:26:06;;;;;;;1.85;1.15;;;;;;;16.23;45.19;100029.50;7763723;32;38991;-80
2022/07/11 01:30:23;;;;;;;3.87;1.45;;;;;;;16.18;45.26;100024.09;7763319;32;39887;-78
2022/07/11 01:34:39;;;;;;;2.08;1.30;;;;;;;16.19;45.30;100031.25;7764388;32;38737;-81
2022/07/11 01:38:55;;;;;;;2.10;1.17;;;;;;;16.12;45.63;100035.19;7764615;32;37914;-80
2022/07/11 01:43:11;;;;;;;2.95;1.37;;;;;;;15.75;46.90;100031.47;7763105;32;39868;-80
2022/07/11 01:47:27;;;;;;;5.30;1.50;;;;;;;15.64;47.10;100029.94;7750109;32;39679;-78
2022/07/11 01:51:44;;;;;;;2.37;1.10;;;;;;;15.85;46.54;100019.47;7737203;32;37628;-80
2022/07/11 01:56:00;;;;;;;2.60;1.42;;;;;;;15.89;46.41;100011.44;7737816;32;37149;-80
2022/07/11 02:00:35;;;;;;;1.83;1.20;;;;;;;15.82;46.92;100019.28;7737085;32;40127;-80
2022/07/11 02:04:51;;;;;;;1.55;1.00;;;;;;;15.94;46.51;100014.09;7736858;32;40893;-80
2022/07/11 02:09:07;;;;;;;3.25;1.30;;;;;;;15.66;47.19;100026.91;7736731;32;38147;-81
2022/07/11 02:13:23;;;;;;;3.17;1.08;;;;;;;15.58;47.50;100014.69;7737053;32;37029;-80
2022/07/11 02:17:40;;;;;;;1.15;1.05;;;;;;;15.82;46.86;100019.28;7735306;32;39007;-80
2022/07/11 02:21:56;;;;;;;3.17;1.20;;;;;;;15.72;47.22;100009.22;7737029;32;40545;-81
2022/07/11 02:26:12;;;;;;;2.28;1.33;;;;;;;15.73;47.31;100010.88;7736390;32;38662;-81
2022/07/11 02:30:28;;;;;;;3.67;1.33;;;;;;;15.74;47.32;100016.03;7736306;32;37756;-78
2022/07/11 02:34:45;;;;;;;2.92;1.23;;;;;;;15.58;48.10;100014.69;7736207;32;39284;-79
2022/07/11 02:39:01;;;;;;;3.22;1.40;;;;;;;15.47;48.91;100019.53;7735949;32;40917;-79
2022/07/11 02:43:17;;;;;;;3.20;1.20;;;;;;;15.41;49.15;100028.94;7747703;32;38195;-77
2022/07/11 02:47:35;;;;;;;5.03;1.55;;;;;;;15.60;48.47;100028.94;7767212;32;36995;-81
2022/07/11 02:51:51;;;;;;;3.37;1.35;;;;;;;15.23;49.43;100027.84;7762779;32;39651;-81
2022/07/11 02:56:07;;;;;;;7.25;1.45;;;;;;;15.51;48.61;100025.25;7765281;32;39935;-80
2022/07/11 03:00:24;;;;;;;2.87;1.42;;;;;;;15.37;48.84;100026.00;7766486;32;37685;-80
2022/07/11 03:04:41;;;;;;;3.72;1.40;;;;;;;15.11;50.10;100032.94;7766578;32;37169;-80
2022/07/11 03:08:57;;;;;;;2.47;1.50;;;;;;;14.93;50.87;100032.66;7766559;32;39875;-80
2022/07/11 03:13:13;;;;;;;1.85;1.30;;;;;;;14.78;51.61;100032.84;7745991;32;39719;-80
2022/07/11 03:17:30;;;;;;;3.85;1.60;;;;;;;14.93;51.42;100034.59;7739283;32;37848;-81
2022/07/11 03:21:46;;;;;;;3.72;1.25;;;;;;;15.19;50.46;100029.53;7739422;32;37111;-80
2022/07/11 03:26:02;;;;;;;2.20;1.50;;;;;;;14.87;51.37;100030.25;7739255;32;39413;-80
2022/07/11 03:30:18;;;;;;;1.60;1.50;;;;;;;15.20;50.38;100020.22;7739209;32;40826;-79
2022/07/11 03:34:35;;;;;;;1.92;1.20;;;;;;;15.02;51.27;100024.56;7739137;32;38080;-78
2022/07/11 03:38:51;;;;;;;2.83;1.20;;;;;;;15.25;50.47;100017.38;7739084;32;37189;-80
2022/07/11 03:43:07;;;;;;;2.90;1.37;;;;;;;14.93;51.38;100037.31;7764962;32;39957;-80
2022/07/11 03:47:24;;;;;;;3.85;1.30;;;;;;;15.13;51.31;100031.56;7765998;32;39856;-79
2022/07/11 03:51:40;;;;;;;3.12;1.52;;;;;;;15.27;50.99;100034.38;7770027;32;38707;-70
2022/07/11 03:55:56;;;;;;;1.67;1.30;;;;;;;15.21;51.06;100039.12;7776852;32;37298;-80
2022/07/11 04:00:13;;;;;;;4.43;1.30;;;;;;;15.58;50.10;100037.47;7766002;32;39333;-80
2022/07/11 04:04:29;;;;;;;3.55;1.30;;;;;;;15.79;50.79;100039.91;7765660;32;40014;-80
2022/07/11 04:08:45;;;;;;;3.42;1.50;;;;;;;15.82;50.30;100046.75;7764810;32;38821;-80
2022/07/11 04:13:01;;;;;;;2.15;1.30;;;;;;;16.06;49.71;100039.19;7740976;32;37770;-79
2022/07/11 04:17:17;;;;;;;4.62;1.17;;;;;;;16.07;50.31;100035.28;7738672;32;40435;-81
2022/07/11 04:21:33;;;;;;;4.15;1.70;;;;;;;16.00;50.31;100032.12;7738572;32;40842;-79
2022/07/11 04:25:49;;;;;;;3.95;1.30;;;;;;;16.28;49.96;100040.44;7738179;32;38380;-79
2022/07/11 04:30:06;;;;;;;4.20;1.55;;;;;;;16.31;49.04;100035.12;7738592;32;36959;-80
2022/07/11 04:34:22;;;;;;;6.95;1.60;;;;;;;16.28;49.61;100023.91;7738678;32;39350;-80
2022/07/11 04:38:38;;;;;;;2.35;1.58;;;;;;;16.38;48.62;100029.22;7738099;32;39930;-77
2022/07/11 04:42:54;;;;;;;2.95;1.70;;;;;;;15.90;49.71;100033.16;7759266;32;37925;-79
2022/07/11 04:47:11;;;;;;;5.95;1.50;;;;;;;16.50;48.63;100037.78;7765288;32;37072;-79
2022/07/11 04:51:27;;;;;;;5.03;1.48;;;;;;;16.34;49.11;100036.47;7765217;32;40144;-80
2022/07/11 04:55:43;;;;;;;3.75;1.25;;;;;;;16.63;48.17;100043.63;7765267;32;39163;-80
2022/07/11 05:00:00;;;;;;;2.90;1.35;;;;;;;16.74;47.89;100045.03;7753712;32;38559;-80
2022/07/11 05:04:16;;;;;;;7.78;1.60;;;;;;;16.83;47.59;100045.13;7738205;32;37140;-80
2022/07/11 05:08:41;;;;;;;3.90;1.60;;;;;;;16.77;48.15;100049.12;7751209;32;39298;-81
2022/07/11 05:12:57;;;;;;;2.40;1.27;;;;;;;16.76;47.63;100048.28;7764434;32;39827;-79
2022/07/11 05:17:14;;;;;;;4.10;1.27;;;;;;;16.85;47.58;100048.41;7764492;32;38559;-80
2022/07/11 05:21:31;;;;;;;4.18;1.37;;;;;;;17.17;46.35;100054.91;7765230;32;36138;-79
2022/07/11 05:25:47;;;;;;;2.65;1.30;;;;;;;17.13;46.65;100054.72;7737713;32;40239;-81
2022/07/11 05:30:03;;;;;;;7.22;1.73;;;;;;;17.21;46.69;100059.50;7737686;32;40001;-75
2022/07/11 05:34:20;;;;;;;6.12;1.40;;;;;;;17.53;48.21;100049.38;7723843;32;38718;-74
2022/07/11 05:38:36;;;;;;;1.92;1.40;;;;;;;17.62;47.01;100061.28;7737492;32;37876;-75
2022/07/11 05:42:52;;;;;;;2.95;1.40;;;;;;;18.01;45.88;100068.09;7742090;32;39480;-76
2022/07/11 05:47:08;;;;;;;3.97;1.20;;;;;;;18.10;45.64;100072.84;7763968;32;39935;-73
2022/07/11 05:51:24;;;;;;;4.22;1.55;;;;;;;18.42;45.06;100068.13;7764080;32;37946;-74
2022/07/11 05:55:41;;;;;;;6.72;1.60;;;;;;;18.17;45.40;100073.22;7762444;32;36970;-74
2022/07/11 05:59:57;;;;;;;4.57;1.30;;;;;;;18.27;45.12;100072.94;7736535;32;40049;-76
2022/07/11 06:04:13;;;;;;;4.57;1.48;;;;;;;18.08;45.62;100080.63;7758961;32;39971;-76
2022/07/11 06:08:42;;;;;;;6.03;1.80;;;;;;;17.70;46.05;100078.22;7760174;32;38825;-76
2022/07/11 06:12:58;;;;;;;5.97;1.80;;;;;;;17.43;47.44;100083.50;7748934;32;37160;-78
2022/07/11 06:17:14;;;;;;;6.55;1.55;;;;;;;17.46;48.04;100087.59;7733157;32;39380;-76
2022/07/11 06:21:30;;;;;;;8.40;1.98;;;;;;;17.65;47.36;100090.19;7743414;32;40694;-78
2022/07/11 06:25:46;;;;;;;2.70;1.20;;;;;;;17.17;48.66;100091.53;7758786;32;37914;-78
2022/07/11 06:30:03;;;;;;;5.28;1.60;;;;;;;17.72;47.43;100087.81;7761809;32;37000;-78
2022/07/11 06:34:19;;;;;;;3.60;1.60;;;;;;;17.52;47.35;100091.84;7765513;32;40130;-74
2022/07/11 06:38:35;;;;;;;2.85;1.62;;;;;;;17.75;47.53;100091.87;7765960;32;40755;-77
2022/07/11 06:42:51;;;;;;;8.00;1.62;;;;;;;17.40;47.48;100092.41;7765319;32;38780;-79
2022/07/11 06:47:07;;;;;;;2.95;1.58;;;;;;;18.10;46.93;100097.69;7761424;32;37598;-78
2022/07/11 06:51:24;;;;;;;5.95;1.58;;;;;;;18.24;45.96;100097.59;7752079;32;40088;-77
2022/07/11 06:55:40;;;;;;;4.18;1.67;;;;;;;18.19;46.35;100093.00;7751989;32;39960;-78
2022/07/11 06:59:56;;;;;;;5.80;1.37;;;;;;;18.34;45.54;100091.81;7765173;32;38019;-78
2022/07/11 07:04:12;;;;;;;5.25;1.60;;;;;;;18.63;45.79;100091.31;7759576;32;37157;-78
2022/07/11 07:08:29;;;;;;;3.30;1.33;;;;;;;18.87;44.44;100095.66;7763301;32;39287;-77
2022/07/11 07:12:46;;;;;;;1.95;1.17;;;;;;;18.96;44.49;100096.47;7738721;32;40564;-77
2022/07/11 07:17:02;;;;;;;4.72;1.67;;;;;;;18.83;45.24;100094.66;7764234;32;37742;-78
2022/07/11 07:21:18;;;;;;;5.50;1.55;;;;;;;18.77;45.24;100094.75;7766087;32;37361;-79
2022/07/11 07:25:35;;;;;;;6.82;1.50;;;;;;;18.41;45.34;100097.69;7764952;32;40096;-77
2022/07/11 07:29:52;;;;;;;4.20;1.40;;;;;;;18.82;44.77;100093.00;7764940;32;40810;-76
2022/07/11 07:34:08;;;;;;;1.83;1.02;;;;;;;19.31;41.60;100089.06;7765374;32;38823;-77
2022/07/11 07:38:24;;;;;;;4.82;1.48;;;;;;;19.22;40.68;100099.31;7743221;32;37342;-76
2022/07/11 07:42:40;;;;;;;5.82;1.58;;;;;;;19.49;40.97;100081.63;7738091;32;39348;-76
2022/07/11 07:47:00;;;;;;;4.12;1.62;;;;;;;20.02;39.33;100089.91;7737461;32;39961;-77
2022/07/11 07:51:17;;;;;;;6.07;1.40;;;;;;;19.59;39.93;100079.66;7738803;32;37940;-78
2022/07/11 07:55:33;;;;;;;4.80;1.37;;;;;;;19.76;39.20;100084.41;7738980;32;37144;-77
2022/07/11 07:59:49;;;;;;;8.48;1.62;;;;;;;20.19;38.21;100077.97;7738675;32;39009;-79
2022/07/11 08:04:06;;;;;;;5.20;1.50;;;;;;;20.21;38.18;100075.69;7754190;32;40740;-79
2022/07/11 08:08:23;;;;;;;5.85;1.60;;;;;;;20.48;37.77;100063.41;7765498;32;38829;-78
2022/07/11 08:12:39;;;;;;;4.37;0.98;;;;;;;20.63;37.92;100054.56;7765515;32;37826;-78
2022/07/11 08:16:56;;;;;;;4.47;1.00;;;;;;;20.29;36.93;100057.44;7765621;32;39942;-79
2022/07/11 08:21:12;;;;;;;5.05;1.30;;;;;;;21.09;34.63;100053.97;7765416;32;40225;-78
2022/07/11 08:25:29;;;;;;;5.60;1.20;;;;;;;21.59;34.39;100039.25;7765201;32;38787;-79
2022/07/11 08:29:45;;;;;;;2.55;0.98;;;;;;;21.31;34.41;100033.44;7764905;32;36706;-79
2022/07/11 08:34:02;;;;;;;4.93;1.40;;;;;;;21.50;31.44;100036.56;7764956;32;39826;-77
2022/07/11 08:38:18;;;;;;;8.75;1.65;;;;;;;22.07;29.81;100035.03;7764871;32;39860;-78
2022/07/11 08:42:39;;;;;;;4.78;1.12;;;;;;;22.42;29.28;100020.78;7747847;32;37921;-78
2022/07/11 08:46:57;;;;;;;2.70;1.30;;;;;;;22.12;30.09;100029.25;7738268;32;38074;-78
2022/07/11 08:51:13;;;;;;;2.33;1.00;;;;;;;22.64;28.51;100027.84;7737710;32;40056;-78
2022/07/11 08:55:30;;;;;;;3.35;1.20;;;;;;;23.30;28.30;100025.12;7744405;32;40554;-81
2022/07/11 08:59:47;;;;;;;4.82;1.20;;;;;;;23.10;28.54;100032.47;7764036;32;37744;-79
2022/07/11 09:04:06;;;;;;;6.20;1.30;;;;;;;23.74;28.13;100014.84;7764357;32;37792;-79
2022/07/11 09:08:24;;;;;;;3.53;1.20;;;;;;;23.63;28.21;100017.34;7764066;32;39441;-78
2022/07/11 09:13:03;;;;;;;2.75;1.15;;;;;;;23.90;26.88;100026.03;7764796;32;40787;-79
2022/07/11 09:17:27;;;;;;;7.80;1.20;;;;;;;23.84;27.33;100027.50;7747465;32;38664;-81
2022/07/11 09:26:42;;;;;;;2.67;0.80;;;;;;;24.41;26.71;100011.47;7736716;32;39301;-78
2022/07/11 09:30:58;;;;;;;4.32;1.10;;;;;;;24.60;25.86;100002.41;7737596;32;39578;-79
2022/07/11 09:35:14;;;;;;;3.87;1.00;;;;;;;23.96;28.44;100007.94;7741340;32;37934;-80
2022/07/11 09:39:30;;;;;;;3.55;1.27;;;;;;;22.44;30.53;100004.59;7759715;32;36972;-80
2022/07/11 09:43:47;;;;;;;6.30;1.83;;;;;;;23.03;30.01;99999.66;7736813;32;39347;-77
2022/07/11 09:48:12;;;;;;;3.05;1.12;;;;;;;22.99;27.33;99996.78;7736693;32;39909;-78
2022/07/11 09:52:28;;;;;;;2.90;1.27;;;;;;;22.16;29.70;99996.06;7737096;32;38723;-77
2022/07/11 09:56:52;;;;;;;3.45;1.20;;;;;;;22.23;28.78;99987.16;7741622;32;37020;-76
2022/07/11 10:01:12;;;;;;;4.50;1.27;;;;;;;22.22;28.68;100003.03;7764128;32;39901;-80
2022/07/11 10:05:29;;;;;;;4.40;1.10;;;;;;;22.55;25.99;99996.59;7749150;32;40712;-80
2022/07/11 10:09:45;;;;;;;8.32;1.52;;;;;;;22.61;27.07;99992.44;7739992;32;38768;-81
2022/07/11 10:14:07;;;;;;;4.75;0.60;;;;;;;23.08;25.87;99976.38;7743876;32;37059;-80
2022/07/11 10:18:35;;;;;;;5.72;1.55;;;;;;;23.71;24.41;99973.81;7753463;32;39888;-79
2022/07/11 10:23:00;;;;;;;5.65;1.30;;;;;;;23.45;24.79;99982.62;7752399;32;40691;-81
2022/07/11 10:27:28;;;;;;;3.70;0.90;;;;;;;24.15;25.02;99970.22;7735441;32;37927;-77
2022/07/11 10:32:04;;;;;;;5.28;1.05;;;;;;;24.32;24.08;99986.56;7726418;32;37108;-80
2022/07/11 10:36:30;;;;;;;7.05;1.58;;;;;;;24.10;23.40;99981.62;7767055;32;40131;-75
2022/07/11 10:40:52;;;;;;;5.25;1.27;;;;;;;24.27;23.46;99981.28;7759498;32;40387;-79
2022/07/11 10:45:12;;;;;;;5.53;1.33;;;;;;;24.51;22.85;99973.88;7743657;32;38034;-80
2022/07/11 10:49:40;;;;;;;4.28;0.90;;;;;;;25.02;22.44;99962.72;7745327;32;37111;-79
2022/07/11 10:54:04;;;;;;;3.47;1.27;;;;;;;24.96;23.07;99966.16;7762085;32;39471;-78
2022/07/11 10:58:24;;;;;;;6.15;1.37;;;;;;;24.84;20.72;99955.94;7765474;32;39928;-79
2022/07/11 11:03:04;;;;;;;3.78;1.20;;;;;;;24.55;23.17;99966.44;7763898;32;38042;-73
2022/07/11 11:07:31;;;;;;;6.25;1.37;;;;;;;23.09;28.50;99964.13;7757841;32;37787;-79
2022/07/11 11:11:50;;;;;;;2.17;1.08;;;;;;;23.38;27.37;99966.56;7757926;32;39356;-77
2022/07/11 11:16:24;;;;;;;8.20;1.37;;;;;;;23.09;27.73;99969.69;7735653;32;40409;-77
2022/07/11 11:20:41;;;;;;;7.00;1.45;;;;;;;23.14;27.23;99964.66;7751608;32;38390;-79
2022/07/11 11:24:57;;;;;;;2.40;0.80;;;;;;;23.33;26.95;99972.38;7759577;32;37131;-77
2022/07/11 11:29:33;;;;;;;5.90;1.02;;;;;;;23.38;26.52;99974.09;7760368;32;39594;-79
2022/07/11 11:33:49;;;;;;;5.57;1.50;;;;;;;23.21;27.26;99966.84;7738777;32;39746;-77
2022/07/11 11:38:06;;;;;;;3.55;1.08;;;;;;;23.10;28.31;99960.97;7759081;32;38575;-80
2022/07/11 11:42:23;;;;;;;4.87;1.25;;;;;;;22.99;26.21;99954.25;7766180;32;37156;-77
2022/07/11 11:46:39;;;;;;;5.55;1.37;;;;;;;23.75;25.76;99965.56;7753674;32;39413;-79
2022/07/11 11:51:06;;;;;;;8.80;1.30;;;;;;;23.57;28.35;99965.88;7738951;32;40765;-80
2022/07/11 11:55:22;;;;;;;6.25;1.20;;;;;;;24.31;28.97;99964.66;7760480;32;38530;-78
2022/07/11 11:59:40;;;;;;;4.87;1.30;;;;;;;24.56;23.61;99968.06;7765795;32;37598;-77
2022/07/11 12:04:08;;;;;;;5.62;1.10;;;;;;;23.74;26.79;99970.31;7764630;32;39844;-79
2022/07/11 12:08:28;;;;;;;2.97;1.23;;;;;;;23.94;26.78;99971.28;7742493;32;39917;-76
2022/07/11 12:12:48;;;;;;;2.87;0.77;;;;;;;23.72;26.09;99975.44;7742379;32;37632;-78
2022/07/11 12:17:05;;;;;;;4.03;1.00;;;;;;;23.71;23.61;99964.66;7774572;32;37141;-78
2022/07/11 12:21:21;;;;;;;3.33;0.93;;;;;;;23.80;24.04;99962.50;7770905;32;40128;-80
2022/07/11 12:25:38;;;;;;;3.25;1.27;;;;;;;23.84;24.52;99971.81;7789434;32;39638;-81
2022/07/11 12:29:54;;;;;;;4.57;1.17;;;;;;;24.33;25.64;99968.66;7779042;32;39405;-82
2022/07/11 12:34:11;;;;;;;6.47;1.65;;;;;;;24.35;23.67;99962.75;7765343;32;37124;-81
2022/07/11 12:38:45;;;;;;;5.40;1.15;;;;;;;25.23;23.28;99961.53;7765494;32;39491;-80
2022/07/11 12:44:57;;;;;;;6.25;1.40;;;;;;;25.43;22.35;99956.81;7765458;32;40474;-80
2022/07/11 12:47:46;;;;;;;7.97;1.30;;;;;;;24.60;23.25;99949.44;7756675;32;37694;-80
2022/07/11 12:52:03;;;;;;;4.82;1.40;;;;;;;24.41;23.44;99950.16;7760058;32;37903;-78
2022/07/11 12:56:23;;;;;;;6.87;1.08;;;;;;;24.63;22.90;99945.09;7742044;32;39153;-78
2022/07/11 13:00:56;;;;;;;8.65;1.40;;;;;;;24.66;22.48;99944.38;7738027;32;41363;-78
2022/07/11 13:05:12;;;;;;;;;;;;;;;24.80;22.47;99960.63;7739386;32;37888;-80
2022/07/11 13:09:28;;;;;;;4.12;1.20;;;;;;;25.65;22.43;99949.66;7765219;32;37830;-80
2022/07/11 13:13:47;;;;;;;5.07;1.12;;;;;;;25.24;22.38;99957.59;7784085;32;39415;-79
2022/07/11 13:18:05;;;;;;;4.72;1.40;;;;;;;24.18;23.49;99966.69;7784916;32;232060;-78
2022/07/11 13:22:21;;;;;;;2.45;1.00;;;;;;;24.31;24.29;99961.84;7783179;32;37818;-80
2022/07/11 13:26:37;;;;;;;3.22;1.00;;;;;;;24.47;24.44;99959.03;7764655;32;37005;-81
2022/07/11 13:30:54;;;;;;;4.85;1.30;;;;;;;24.73;24.40;99969.63;7764799;32;38939;-78
2022/07/11 13:35:29;;;;;;;3.10;1.10;;;;;;;24.71;23.72;99964.41;7736857;32;40598;-80
2022/07/11 13:39:46;;;;;;;4.50;1.20;;;;;;;24.18;24.72;99955.56;7734857;32;38675;-79
2022/07/11 13:44:02;;;;;;;2.90;0.90;;;;;;;24.49;24.31;99948.34;7760620;32;37050;-79
2022/07/11 13:48:18;;;;;;;5.50;1.35;;;;;;;24.98;24.29;99950.69;7758411;32;39766;-79
2022/07/11 13:52:35;;;;;;;2.55;1.10;;;;;;;25.77;22.68;99946.69;7763818;32;41019;-79
2022/07/11 13:56:51;;;;;;;5.22;1.30;;;;;;;25.73;24.06;99945.81;7755474;32;37964;-77
2022/07/11 14:01:07;;;;;;;3.85;1.30;;;;;;;26.41;23.39;99935.00;7763359;32;37888;-77
2022/07/11 14:05:23;;;;;;;4.53;1.20;;;;;;;25.56;23.59;99938.72;7765673;32;39895;-77
2022/07/11 14:09:41;;;;;;;7.82;1.45;;;;;;;25.85;24.17;99936.44;7757418;32;39977;-77
2022/07/11 14:13:57;;;;;;;3.47;1.20;;;;;;;25.56;24.16;99943.47;7752338;32;38795;-78
2022/07/11 14:18:13;;;;;;;6.45;1.45;;;;;;;25.78;22.64;99930.72;7761875;32;37519;-79
2022/07/11 14:22:30;;;;;;;1.77;1.10;;;;;;;25.91;23.60;99934.16;7750311;32;39922;-79
2022/07/11 14:26:47;;;;;;;2.35;1.20;;;;;;;25.07;25.88;99936.53;7762439;32;40883;-77
2022/07/11 14:31:03;;;;;;;5.95;1.55;;;;;;;25.64;24.16;99942.44;7744783;32;37900;-78
2022/07/11 14:35:20;;;;;;;8.07;1.40;;;;;;;25.08;24.67;99952.09;7751748;32;37884;-76
2022/07/11 14:39:36;;;;;;;5.75;1.17;;;;;;;24.97;25.14;99957.41;7744106;32;40102;-78
2022/07/11 14:43:52;;;;;;;6.00;1.10;;;;;;;24.63;25.10;99939.53;7736698;32;40198;-78
2022/07/11 14:48:10;;;;;;;4.45;1.48;;;;;;;24.41;25.14;99947.37;7735134;32;37895;-77
2022/07/11 14:52:26;;;;;;;8.52;1.70;;;;;;;24.54;26.17;99956.44;7741376;32;36012;-77
2022/07/11 14:56:42;;;;;;;3.58;1.33;;;;;;;24.92;25.87;99957.69;7739518;32;39507;-74
2022/07/11 15:00:59;;;;;;;3.78;1.45;;;;;;;25.90;23.64;99946.50;7744677;32;39865;-75
2022/07/11 15:05:16;;;;;;;3.15;1.15;;;;;;;25.97;23.50;99941.06;7745032;32;39226;-76
2022/07/11 15:14:07;;;;;;;4.07;1.17;;;;;;;25.39;23.72;99942.78;7747824;32;40117;-77
2022/07/11 15:18:23;;;;;;;4.55;0.98;;;;;;;25.19;23.99;99933.56;7761623;32;40533;-78
2022/07/11 15:22:40;;;;;;;4.37;1.10;;;;;;;25.42;24.12;99942.06;7746066;32;37783;-78
2022/07/11 15:27:01;;;;;;;5.22;1.20;;;;;;;25.70;23.46;99940.97;7767384;32;37005;-78
2022/07/11 15:31:18;;;;;;;5.55;1.42;;;;;;;25.70;22.59;99935.41;7743366;32;39006;-80
2022/07/11 15:35:34;;;;;;;5.22;1.12;;;;;;;25.11;22.12;99938.22;7764497;32;40782;-76
2022/07/11 15:39:51;;;;;;;5.75;0.93;;;;;;;25.59;20.58;99937.16;7743684;32;36220;-78
2022/07/11 15:44:08;;;;;;;5.80;1.27;;;;;;;25.94;19.13;99938.97;7738267;32;36538;-78
2022/07/11 15:48:24;;;;;;;2.47;1.00;;;;;;;26.20;18.38;99949.47;7738233;32;39083;-76
2022/07/11 15:52:41;;;;;;;4.80;1.12;;;;;;;26.59;18.57;99933.25;7737679;32;39517;-78
2022/07/11 15:57:02;;;;;;;2.60;1.00;;;;;;;25.84;19.37;99930.06;7738151;32;38486;-76
2022/07/11 16:01:20;;;;;;;4.85;1.20;;;;;;;25.97;20.04;99938.28;7735335;32;37997;-78
2022/07/11 16:05:37;;;;;;;3.15;0.95;;;;;;;26.20;19.95;99943.88;7737920;32;40128;-80
2022/07/11 16:09:53;;;;;;;6.30;1.33;;;;;;;26.09;20.41;99946.47;7737962;32;39911;-79
2022/07/11 16:14:09;;;;;;;3.15;1.00;;;;;;;25.96;21.45;99948.66;7736351;32;36385;-79
2022/07/11 16:18:26;;;;;;;2.50;1.33;;;;;;;25.88;21.92;99951.66;7737833;32;37016;-79
2022/07/11 16:22:44;;;;;;;9.25;1.45;;;;;;;25.78;22.52;99953.88;7745737;32;38956;-79
2022/07/11 16:27:02;;;;;;;7.22;1.35;;;;;;;25.46;23.48;99970.81;7764516;32;40057;-79
2022/07/11 16:31:19;;;;;;;4.37;1.60;;;;;;;25.48;22.51;99957.31;7756364;32;38450;-78
2022/07/11 16:35:36;;;;;;;6.90;0.90;;;;;;;25.49;22.58;99953.34;7754156;32;37114;-78
2022/07/11 16:44:27;;;;;;;9.38;1.42;;;;;;;24.88;23.96;99945.69;7743895;32;40717;-77
2022/07/11 16:48:44;;;;;;;4.55;1.30;;;;;;;25.21;24.01;99958.31;7755889;32;37944;-78
2022/07/11 16:53:00;;;;;;;6.35;1.37;;;;;;;25.11;23.45;99949.38;7746208;32;36981;-79
2022/07/11 16:57:17;;;;;;;4.85;1.37;;;;;;;24.62;24.16;99949.88;7743004;32;39307;-78
2022/07/11 17:01:33;;;;;;;9.52;1.45;;;;;;;24.49;24.65;99954.75;7737290;32;40826;-76
2022/07/11 17:05:50;;;;;;;5.10;1.30;;;;;;;24.40;24.99;99956.91;7737245;32;38647;-76
2022/07/11 17:10:06;;;;;;;6.10;1.40;;;;;;;24.84;24.22;99944.81;7762479;32;37051;-79
2022/07/11 17:14:23;;;;;;;4.97;1.20;;;;;;;24.92;24.18;99958.53;7760433;32;40189;-77
2022/07/11 17:18:40;;;;;;;4.57;1.17;;;;;;;24.84;24.35;99950.38;7753741;32;39714;-77
2022/07/11 17:22:57;;;;;;;1.75;1.10;;;;;;;25.13;23.61;99957.38;7742653;32;38377;-77
2022/07/11 17:27:13;;;;;;;2.72;1.20;;;;;;;25.47;23.54;99957.66;7739370;32;36822;-75
2022/07/11 17:31:29;;;;;;;3.97;1.15;;;;;;;25.43;22.96;99963.19;7735872;32;39402;-77
2022/07/11 17:35:46;;;;;;;2.15;0.90;;;;;;;25.18;22.46;99967.41;7736084;32;39920;-77
2022/07/11 17:40:03;;;;;;;7.45;1.27;;;;;;;24.97;22.65;99968.56;7754218;32;37941;-79
2022/07/11 17:44:19;;;;;;;5.40;1.67;;;;;;;24.66;23.07;99973.06;7763046;32;37061;-77
2022/07/11 17:48:35;;;;;;;35.83;19.95;;;;;;;24.68;23.14;99975.47;7764313;32;39038;-78
2022/07/11 17:52:53;;;;;;;26.58;13.50;;;;;;;23.97;23.87;99983.66;7744935;32;40568;-78
2022/07/11 17:57:09;;;;;;;8.15;4.25;;;;;;;24.25;23.57;99985.56;7749472;32;38805;-77
2022/07/11 18:01:26;;;;;;;5.70;2.67;;;;;;;24.27;23.16;99984.06;7756673;32;37012;-78
2022/07/11 18:05:43;;;;;;;6.28;2.15;;;;;;;23.95;23.52;99984.03;7737944;32;39015;-76
2022/07/11 18:09:59;;;;;;;8.95;2.20;;;;;;;23.58;24.32;99987.00;7736923;32;39996;-76
2022/07/11 18:14:15;;;;;;;5.00;1.30;;;;;;;23.59;24.42;99994.19;7736766;32;38005;-77
2022/07/11 18:18:31;;;;;;;4.07;1.08;;;;;;;23.60;24.80;99998.56;7736762;32;37208;-78
2022/07/11 18:22:47;;;;;;;3.55;1.05;;;;;;;23.28;25.15;100002.41;7736504;32;39318;-77
2022/07/11 18:27:07;;;;;;;3.28;1.25;;;;;;;22.92;25.84;100009.63;7757571;32;39682;-78
2022/07/11 18:31:23;;;;;;;3.05;0.80;;;;;;;22.68;26.35;100020.44;7766911;32;38161;-77
2022/07/11 18:35:40;;;;;;;3.08;1.20;;;;;;;22.54;26.51;100024.72;7767140;32;37811;-77
2022/07/11 18:44:31;;;;;;;3.80;1.20;;;;;;;22.61;26.79;100036.06;7760977;32;40716;-77
2022/07/11 18:48:47;;;;;;;3.30;1.10;;;;;;;22.45;27.25;100035.94;7770779;32;38016;-76
2022/07/11 18:53:05;;;;;;;6.40;1.20;;;;;;;22.33;27.65;100039.50;7739704;32;37230;-77
2022/07/11 18:57:21;;;;;;;2.67;1.35;;;;;;;22.35;27.72;100042.75;7739712;32;39064;-77
2022/07/11 19:01:38;;;;;;;6.55;1.87;;;;;;;22.20;28.58;100047.00;7739441;32;39773;-77
2022/07/11 19:05:54;;;;;;;3.67;1.40;;;;;;;22.19;28.70;100058.44;7739432;32;38834;-77
2022/07/11 19:10:10;;;;;;;13.23;4.20;;;;;;;22.14;28.76;100059.47;7739488;32;37159;-77
2022/07/11 19:14:28;;;;;;;8.82;1.50;;;;;;;21.97;29.25;100068.78;7739549;32;39954;-78
2022/07/11 19:18:47;;;;;;;8.23;2.65;;;;;;;21.79;29.88;100078.44;7739349;32;40793;-77
2022/07/11 19:23:04;;;;;;;8.52;4.12;;;;;;;21.95;29.56;100084.97;7739111;32;38599;-79
2022/07/11 19:27:20;;;;;;;5.65;1.33;;;;;;;21.89;29.85;100086.34;7742773;32;37016;-77
2022/07/11 19:31:37;;;;;;;4.72;1.27;;;;;;;21.83;30.09;100085.72;7742805;32;39258;-78
2022/07/11 19:35:53;;;;;;;3.50;1.15;;;;;;;21.61;30.53;100091.63;7750311;32;38522;-76
2022/07/11 19:40:10;;;;;;;5.10;1.55;;;;;;;21.53;30.67;100093.34;7758863;32;38056;-77
2022/07/11 19:44:26;;;;;;;4.53;2.28;;;;;;;21.53;30.75;100101.66;7739162;32;36800;-78
2022/07/11 19:48:42;;;;;;;3.47;1.58;;;;;;;21.39;30.68;100102.69;7739032;32;39855;-78
2022/07/11 19:52:58;;;;;;;5.68;1.55;;;;;;;21.38;30.76;100112.16;7750367;32;40716;-78
2022/07/11 19:57:25;;;;;;;4.95;1.92;;;;;;;21.22;31.39;100113.09;7766164;32;37862;-79
2022/07/11 20:01:43;;;;;;;3.28;1.60;;;;;;;21.09;31.75;100120.50;7765885;32;37004;-76
2022/07/11 20:06:00;;;;;;;2.97;1.30;;;;;;;20.89;32.36;100130.41;7765927;32;39905;-78
2022/07/11 20:10:17;;;;;;;72.55;42.92;;;;;;;20.73;32.31;100133.72;7765843;32;40793;-77
2022/07/11 20:14:35;;;;;;;6.35;2.12;;;;;;;20.76;32.34;100132.25;7765526;32;37899;-79
2022/07/11 20:18:51;;;;;;;2.87;1.10;;;;;;;20.51;33.28;100133.94;7759332;32;37221;-80
2022/07/11 20:23:08;;;;;;;2.37;1.20;;;;;;;20.59;32.89;100141.38;7759854;32;39866;-78